createdAt,value
2023-02-14T00:01:59.414Z,62.90
2023-02-14T00:07:02.778Z,63.00
2023-02-14T00:12:08.092Z,63.00
2023-02-14T00:17:11.701Z,63.10
2023-02-14T00:22:15.151Z,63.20
2023-02-14T00:27:19.860Z,63.20
2023-02-14T00:32:23.220Z,63.50
2023-02-14T00:37:30.014Z,63.50
2023-02-14T00:42:34.777Z,63.50
2023-02-14T00:47:38.209Z,63.70
2023-02-14T00:52:41.841Z,63.50
2023-02-14T00:57:46.557Z,63.70
2023-02-14T01:02:49.945Z,63.90
2023-02-14T01:07:53.219Z,63.90
2023-02-14T01:12:58.036Z,63.90
2023-02-14T01:18:01.957Z,64.90
2023-02-14T01:23:05.406Z,63.90
2023-02-14T01:28:11.551Z,63.90
2023-02-14T01:33:16.680Z,64.10
2023-02-14T01:38:20.103Z,63.90
2023-02-14T01:43:25.480Z,63.90
2023-02-14T01:48:29.018Z,64.00
2023-02-14T01:53:32.485Z,64.10
2023-02-14T01:58:40.847Z,64.00
2023-02-14T02:03:50.185Z,64.30
2023-02-14T02:09:04.119Z,64.30
2023-02-14T02:14:14.773Z,64.30
2023-02-14T02:19:58.691Z,64.50
2023-02-14T02:25:09.881Z,64.70
2023-02-14T02:30:43.331Z,64.50
2023-02-14T02:36:02.873Z,64.80
2023-02-14T02:41:19.775Z,64.70
2023-02-14T02:46:45.411Z,64.70
2023-02-14T02:52:21.726Z,64.70
2023-02-14T02:57:31.095Z,64.70
2023-02-14T03:02:58.736Z,65.50
2023-02-14T03:08:04.193Z,64.60
2023-02-14T03:13:43.352Z,64.60
2023-02-14T03:19:02.642Z,64.90
2023-02-14T03:24:17.533Z,64.80
2023-02-14T03:29:29.638Z,64.80
2023-02-14T03:34:39.631Z,64.70
2023-02-14T03:39:50.434Z,64.70
2023-02-14T03:44:58.508Z,64.90
2023-02-14T03:50:08.778Z,65.00
2023-02-14T03:55:18.265Z,65.20
2023-02-14T04:00:21.903Z,65.10
2023-02-14T04:05:28.520Z,65.00
2023-02-14T04:10:33.621Z,65.20
2023-02-14T04:15:37.131Z,65.40
2023-02-14T04:20:40.579Z,65.30
2023-02-14T04:25:45.747Z,65.30
2023-02-14T04:30:49.146Z,65.60
2023-02-14T04:35:52.551Z,65.60
2023-02-14T04:40:57.509Z,65.60
2023-02-14T04:46:01.107Z,65.70
2023-02-14T04:51:04.607Z,65.60
2023-02-14T04:56:09.794Z,65.70
2023-02-14T05:01:13.364Z,65.90
2023-02-14T05:06:16.767Z,65.90
2023-02-14T05:11:21.637Z,65.80
2023-02-14T05:16:26.710Z,65.80
2023-02-14T05:21:33.241Z,65.80
2023-02-14T05:26:37.972Z,65.80
2023-02-14T05:31:41.493Z,65.90
2023-02-14T05:36:45.016Z,65.60
2023-02-14T05:41:49.830Z,66.00
2023-02-14T05:46:54.922Z,65.70
2023-02-14T05:51:58.307Z,65.50
2023-02-14T05:57:02.993Z,65.80
2023-02-14T06:02:06.928Z,65.90
2023-02-14T06:07:10.396Z,65.80
2023-02-14T06:12:15.187Z,65.70
2023-02-14T06:17:18.546Z,65.50
2023-02-14T06:22:22.033Z,65.50
2023-02-14T06:27:26.783Z,65.40
2023-02-14T06:32:30.182Z,65.30
2023-02-14T06:37:34.148Z,65.30
2023-02-14T06:42:45.243Z,65.30
2023-02-14T06:47:53.865Z,65.60
2023-02-14T06:53:01.637Z,65.60
2023-02-14T06:58:08.896Z,65.70
2023-02-14T07:03:14.635Z,65.70
2023-02-14T07:08:21.301Z,65.80
2023-02-14T07:13:28.384Z,65.70
2023-02-14T07:18:33.991Z,65.70
2023-02-14T07:23:41.502Z,65.70
2023-02-14T07:28:49.399Z,65.70
2023-02-14T07:33:55.473Z,65.70
2023-02-14T07:39:00.418Z,65.80
2023-02-14T07:44:06.861Z,65.70
2023-02-14T07:49:12.935Z,65.40
2023-02-14T07:54:20.259Z,65.50
2023-02-14T07:59:26.722Z,65.50
2023-02-14T08:04:34.082Z,65.50
2023-02-14T08:09:40.174Z,65.50
2023-02-14T08:14:47.443Z,65.60
2023-02-14T08:19:53.632Z,65.60
2023-02-14T08:24:59.127Z,65.70
2023-02-14T08:30:05.750Z,65.60
2023-02-14T08:35:12.253Z,65.60
2023-02-14T08:40:17.501Z,65.60
2023-02-14T08:45:24.728Z,65.80
2023-02-14T08:50:31.179Z,66.00
2023-02-14T08:55:38.011Z,66.00
2023-02-14T09:00:46.262Z,66.00
2023-02-14T09:05:51.344Z,66.00
2023-02-14T09:10:57.089Z,66.00
2023-02-14T09:16:06.328Z,66.00
2023-02-14T09:21:12.914Z,65.90
2023-02-14T09:26:19.316Z,65.90
2023-02-14T09:31:27.212Z,65.90
2023-02-14T09:36:32.382Z,65.80
2023-02-14T09:42:04.036Z,65.70
2023-02-14T09:47:19.058Z,65.70
2023-02-14T09:52:29.565Z,65.50
2023-02-14T09:57:41.483Z,65.50
2023-02-14T10:02:58.433Z,65.50
2023-02-14T10:08:10.344Z,65.50
2023-02-14T10:13:21.218Z,65.40
2023-02-14T10:18:33.197Z,65.40
2023-02-14T10:23:42.419Z,65.30
2023-02-14T10:28:50.554Z,65.20
2023-02-14T10:33:58.379Z,65.20
2023-02-14T10:39:10.192Z,64.90
2023-02-14T10:44:27.928Z,65.10
2023-02-14T10:49:42.775Z,64.90
2023-02-14T10:54:53.688Z,64.80
2023-02-14T11:00:02.368Z,65.10
2023-02-14T11:05:10.280Z,65.10
2023-02-14T11:10:16.502Z,65.00
2023-02-14T11:15:27.949Z,65.10
2023-02-14T11:20:34.452Z,64.80
2023-02-14T11:25:39.893Z,64.80
2023-02-14T11:30:47.903Z,64.70
2023-02-14T11:35:55.471Z,64.50
2023-02-14T11:41:01.935Z,64.40
2023-02-14T11:46:14.675Z,64.60
2023-02-14T11:51:30.627Z,64.30
2023-02-14T11:56:55.637Z,63.90
2023-02-14T12:02:05.091Z,63.90
2023-02-14T12:07:21.178Z,64.00
2023-02-14T12:12:27.809Z,63.70
2023-02-14T12:17:36.056Z,63.70
2023-02-14T12:22:49.084Z,63.70
2023-02-14T12:27:58.970Z,63.70
2023-02-14T12:33:06.022Z,63.60
2023-02-14T12:38:23.401Z,63.60
2023-02-14T12:43:48.405Z,63.20
2023-02-14T12:49:07.579Z,63.20
2023-02-14T12:54:31.175Z,63.40
2023-02-14T12:59:45.800Z,63.20
2023-02-14T13:05:03.022Z,63.20
2023-02-14T13:10:24.587Z,63.20
2023-02-14T13:15:37.085Z,63.20
2023-02-14T13:20:53.906Z,63.20
2023-02-14T13:26:06.656Z,63.00
2023-02-14T13:31:15.350Z,63.00
2023-02-14T13:36:22.686Z,63.00
2023-02-14T13:41:30.450Z,62.90
2023-02-14T13:46:53.981Z,62.60
2023-02-14T13:52:01.487Z,62.40
2023-02-14T13:57:29.391Z,62.60
2023-02-14T14:02:45.953Z,62.20
2023-02-14T14:08:14.009Z,62.20
2023-02-14T14:13:52.007Z,62.50
2023-02-14T14:19:00.309Z,62.20
2023-02-14T14:24:24.886Z,62.40
2023-02-14T14:29:32.515Z,62.20
2023-02-14T14:34:38.752Z,62.50
2023-02-14T14:39:45.283Z,62.50
2023-02-14T14:44:52.727Z,62.50
2023-02-14T14:50:06.409Z,62.40
2023-02-14T14:55:18.573Z,62.20
2023-02-14T15:00:29.033Z,62.40
2023-02-14T15:05:38.491Z,62.40
2023-02-14T15:10:45.463Z,62.30
2023-02-14T15:15:52.706Z,62.40
2023-02-14T15:21:02.684Z,62.50
2023-02-14T15:26:08.931Z,62.40
2023-02-14T15:31:15.086Z,62.40
2023-02-14T15:36:25.578Z,62.20
2023-02-14T15:41:30.352Z,62.20
2023-02-14T15:46:38.669Z,62.30
2023-02-14T15:51:45.609Z,62.30
2023-02-14T15:56:52.971Z,62.20
2023-02-14T16:02:02.173Z,62.60
2023-02-14T16:07:24.313Z,62.40
2023-02-14T16:12:34.860Z,62.30
2023-02-14T16:17:42.607Z,62.40
2023-02-14T16:22:49.770Z,62.30
2023-02-14T16:27:55.464Z,62.30
2023-02-14T16:33:02.645Z,62.30
2023-02-14T16:38:21.582Z,62.30
2023-02-14T16:43:26.393Z,62.10
2023-02-14T16:48:34.537Z,62.30
2023-02-14T16:53:43.063Z,62.60
2023-02-14T16:58:50.875Z,62.50
2023-02-14T17:03:57.460Z,62.50
2023-02-14T17:09:09.428Z,62.50
2023-02-14T17:14:23.514Z,62.50
2023-02-14T17:19:31.006Z,62.50
2023-02-14T17:24:38.773Z,62.50
2023-02-14T17:29:48.450Z,62.50
2023-02-14T17:34:55.641Z,62.50
2023-02-14T17:40:06.664Z,63.40
2023-02-14T17:45:17.240Z,62.50
2023-02-14T17:50:23.841Z,62.50
2023-02-14T17:55:31.612Z,62.60
2023-02-14T18:00:38.548Z,62.50
2023-02-14T18:05:47.229Z,62.50
2023-02-14T18:10:56.120Z,62.50
2023-02-14T18:16:05.830Z,62.60
2023-02-14T18:21:16.786Z,62.60
2023-02-14T18:26:28.985Z,62.60
2023-02-14T18:31:39.864Z,62.60
2023-02-14T18:36:47.904Z,62.60
2023-02-14T18:47:23.406Z,62.70
2023-02-14T18:52:28.037Z,62.60
2023-02-14T18:57:39.522Z,62.70
2023-02-14T19:02:45.582Z,62.60
2023-02-14T19:07:56.996Z,62.60
2023-02-14T19:13:02.925Z,62.60
2023-02-14T19:18:09.670Z,62.50
2023-02-14T19:23:14.922Z,62.50
2023-02-14T19:28:19.769Z,62.50
2023-02-14T19:33:27.859Z,62.60
2023-02-14T19:38:33.537Z,62.40
2023-02-14T19:43:42.146Z,62.40
2023-02-14T19:48:52.305Z,62.40
2023-02-14T19:53:58.896Z,62.50
2023-02-14T19:59:08.468Z,62.50
2023-02-14T20:04:17.801Z,62.50
2023-02-14T20:09:28.418Z,62.50
2023-02-14T20:14:47.113Z,62.50
2023-02-14T20:20:04.476Z,62.40
2023-02-14T20:25:13.650Z,62.40
2023-02-14T20:30:26.550Z,62.50
2023-02-14T20:35:35.332Z,62.40
2023-02-14T20:40:42.977Z,62.40
2023-02-14T20:45:50.994Z,62.50
2023-02-14T20:50:58.507Z,62.50
2023-02-14T20:56:04.670Z,62.50
2023-02-14T21:01:11.211Z,62.50
2023-02-14T21:06:19.246Z,62.50
2023-02-14T21:11:27.809Z,62.60
2023-02-14T21:16:37.559Z,62.70
2023-02-14T21:21:46.057Z,62.70
2023-02-14T21:26:51.912Z,62.60
2023-02-14T21:31:57.976Z,62.80
2023-02-14T21:37:05.153Z,62.70
2023-02-14T21:42:12.459Z,62.70
2023-02-14T21:47:18.931Z,62.80
2023-02-14T21:52:25.556Z,62.80
2023-02-14T21:57:32.072Z,62.90
2023-02-14T22:02:39.045Z,62.80
2023-02-14T22:07:46.077Z,62.80
2023-02-14T22:12:50.131Z,62.80
2023-02-14T22:17:53.457Z,62.70
2023-02-14T22:22:58.529Z,62.60
2023-02-14T22:28:02.849Z,62.60
2023-02-14T22:33:06.175Z,62.60
2023-02-14T22:38:12.092Z,62.50
2023-02-14T22:43:16.246Z,62.60
2023-02-14T22:48:20.487Z,62.50
2023-02-14T22:53:25.439Z,62.60
2023-02-14T22:58:28.812Z,62.60
2023-02-14T23:03:32.184Z,62.60
2023-02-14T23:08:39.816Z,62.70
2023-02-14T23:14:01.423Z,62.60
2023-02-14T23:19:22.038Z,62.60
2023-02-14T23:24:26.799Z,62.70
2023-02-14T23:29:30.230Z,62.80
2023-02-14T23:34:35.297Z,62.60
2023-02-14T23:39:40.003Z,62.60
2023-02-14T23:44:44.464Z,62.60
2023-02-14T23:49:47.803Z,62.60
2023-02-14T23:54:52.493Z,62.70
2023-02-14T23:59:55.888Z,62.60
